createdAt,value
2018-11-25T06:48:34.386Z,77.58
2018-11-25T06:51:47.385Z,76.82
2018-11-25T06:55:01.220Z,78.78
2018-11-25T06:58:17.716Z,76.70
2018-11-25T07:01:43.309Z,81.23
2018-11-25T07:04:49.425Z,84.33
2018-11-25T07:07:49.352Z,77.17
2018-11-25T07:10:57.352Z,76.87
2018-11-25T07:14:02.279Z,76.60
2018-11-25T07:17:11.769Z,74.17
2018-11-25T07:20:08.258Z,72.13
2018-11-25T07:23:13.202Z,77.53
2018-11-25T07:26:14.035Z,77.93
2018-11-25T07:29:18.774Z,81.45
2018-11-25T07:32:23.620Z,74.40
2018-11-25T07:35:27.066Z,79.07
2018-11-25T07:38:32.753Z,71.53
2018-11-25T07:41:38.007Z,72.70
2018-11-25T07:45:02.221Z,76.10
2018-11-25T07:47:49.718Z,72.87
2018-11-25T07:50:55.412Z,82.60
2018-11-25T07:53:57.462Z,73.67
2018-11-25T07:57:03.299Z,76.70
2018-11-25T08:00:03.904Z,70.43
2018-11-25T08:03:04.882Z,72.63
2018-11-25T08:06:06.231Z,64.13
2018-11-25T08:09:11.776Z,75.10
2018-11-25T08:12:17.928Z,64.92
2018-11-25T08:15:20.002Z,74.13
2018-11-25T08:18:30.266Z,71.00
2018-11-25T08:21:35.941Z,76.57
2018-11-25T08:24:40.748Z,66.47
2018-11-25T08:27:45.590Z,78.17
2018-11-25T08:30:46.169Z,72.83
2018-11-25T08:33:51.959Z,65.60
2018-11-25T08:36:57.789Z,65.63
2018-11-25T08:40:08.499Z,65.70
2018-11-25T08:43:13.330Z,62.47
2018-11-25T08:46:18.528Z,63.60
2018-11-25T08:49:22.132Z,61.93
2018-11-25T08:52:26.907Z,64.47
2018-11-25T08:55:31.101Z,63.78
2018-11-25T08:58:36.595Z,65.20
2018-11-25T09:01:41.012Z,67.57
2018-11-25T09:04:46.549Z,63.87
2018-11-25T09:07:52.202Z,57.85
2018-11-25T09:10:57.285Z,68.77
2018-11-25T09:13:57.888Z,56.80
2018-11-25T09:16:59.340Z,57.40
2018-11-25T09:20:04.577Z,54.23
2018-11-25T09:23:10.840Z,62.83
2018-11-25T09:26:16.657Z,59.70
2018-11-25T09:29:22.449Z,59.97
2018-11-25T09:32:27.298Z,60.37
2018-11-25T09:35:27.818Z,54.10
2018-11-25T09:38:32.688Z,58.13
2018-11-25T09:41:37.155Z,58.07
2018-11-25T09:44:42.138Z,53.53
2018-11-25T09:47:46.675Z,64.50
2018-11-25T09:50:51.386Z,63.63
2018-11-25T09:53:56.217Z,55.57
2018-11-25T09:56:57.575Z,58.07
2018-11-25T09:59:57.544Z,54.13
2018-11-25T10:02:58.275Z,52.00
2018-11-25T10:05:59.115Z,56.17
2018-11-25T10:09:04.418Z,54.40
2018-11-25T10:12:09.740Z,56.47
2018-11-25T10:15:15.168Z,50.77
2018-11-25T10:18:19.173Z,50.40
2018-11-25T10:21:24.263Z,49.90
2018-11-25T10:24:28.765Z,58.10
2018-11-25T10:27:29.104Z,55.00
2018-11-25T10:30:34.373Z,53.87
2018-11-25T10:33:39.282Z,50.57
2018-11-25T10:36:44.238Z,50.73
2018-11-25T10:39:46.603Z,57.60
2018-11-25T10:42:51.712Z,55.20
2018-11-25T10:45:55.990Z,53.23
2018-11-25T10:49:00.737Z,51.20
2018-11-25T10:52:04.807Z,48.40
2018-11-25T10:55:08.685Z,52.63
2018-11-25T10:58:13.636Z,52.43
2018-11-25T11:01:34.228Z,51.00
2018-11-25T11:04:58.019Z,52.53
2018-11-25T11:08:03.357Z,46.10
2018-11-25T11:11:03.906Z,48.50
2018-11-25T11:14:08.888Z,49.15
2018-11-25T11:17:09.446Z,49.37
2018-11-25T11:20:14.804Z,50.67
2018-11-25T11:23:20.574Z,48.80
2018-11-25T11:26:28.348Z,47.77
2018-11-25T11:29:33.523Z,49.77
2018-11-25T11:32:39.862Z,46.70
2018-11-25T11:35:44.882Z,44.97
2018-11-25T11:38:50.956Z,46.47
2018-11-25T11:41:52.610Z,44.87
2018-11-25T11:44:52.502Z,54.33
2018-11-25T11:47:55.566Z,50.43
2018-11-25T11:51:00.352Z,46.30
2018-11-25T11:54:04.488Z,50.77
2018-11-25T11:57:08.366Z,47.15
2018-11-25T12:00:31.478Z,53.53
2018-11-25T12:03:36.011Z,50.60
2018-11-25T12:06:43.109Z,51.37
2018-11-25T12:09:48.605Z,56.63
2018-11-25T12:12:53.304Z,46.33
2018-11-25T12:15:56.824Z,49.93
2018-11-25T12:19:01.761Z,48.63
2018-11-25T12:22:06.958Z,44.97
2018-11-25T12:25:12.466Z,42.27
2018-11-25T12:28:17.270Z,49.07
2018-11-25T12:31:23.481Z,49.00
2018-11-25T12:34:28.547Z,47.40
2018-11-25T12:37:35.899Z,48.65
2018-11-25T12:40:36.472Z,48.40
2018-11-25T12:43:41.600Z,45.83
2018-11-25T12:46:46.755Z,49.23
2018-11-25T12:49:51.801Z,45.27
2018-11-25T12:52:56.099Z,51.93
2018-11-25T12:56:01.802Z,45.93
2018-11-25T12:59:06.177Z,44.23
2018-11-25T13:02:11.093Z,44.93
2018-11-25T13:05:15.787Z,51.68
2018-11-25T13:08:20.746Z,58.70
2018-11-25T13:11:24.941Z,53.43
2018-11-25T13:14:30.049Z,56.30
2018-11-25T13:17:30.782Z,57.07
2018-11-25T13:20:35.963Z,53.55
2018-11-25T13:23:43.108Z,50.87
2018-11-25T13:26:42.445Z,54.97
2018-11-25T13:29:47.645Z,59.10
2018-11-25T13:32:49.170Z,53.93
2018-11-25T13:35:54.287Z,56.27
2018-11-25T13:38:58.383Z,63.37
2018-11-25T13:42:02.704Z,63.00
2018-11-25T13:45:05.665Z,55.87
2018-11-25T13:48:10.709Z,60.43
2018-11-25T13:51:15.645Z,63.53
2018-11-25T13:54:21.158Z,69.17
2018-11-25T13:57:26.058Z,60.43
2018-11-25T14:00:35.006Z,60.57
2018-11-25T14:03:40.102Z,68.17
2018-11-25T14:06:45.045Z,60.90
2018-11-25T14:09:49.958Z,74.42
2018-11-25T14:12:54.245Z,90.20
2018-11-25T14:15:58.457Z,128.90
2018-11-25T14:19:03.594Z,168.80
2018-11-25T14:22:08.626Z,183.10
2018-11-25T14:25:13.656Z,153.02
2018-11-25T14:28:18.647Z,154.63
2018-11-25T14:31:23.009Z,156.70
2018-11-25T14:34:28.704Z,155.27
2018-11-25T14:37:33.222Z,155.40
2018-11-25T14:40:40.782Z,168.07
2018-11-25T14:43:40.304Z,195.20
2018-11-25T14:46:45.040Z,182.63
2018-11-25T14:49:49.617Z,165.93
2018-11-25T14:52:52.647Z,158.10
2018-11-25T14:56:00.584Z,168.80
2018-11-25T14:59:05.379Z,149.83
2018-11-25T15:02:12.337Z,167.73
2018-11-25T15:05:17.180Z,178.13
2018-11-25T15:08:22.227Z,159.33
2018-11-25T15:11:22.469Z,157.07
2018-11-25T15:14:30.456Z,184.50
2018-11-25T15:17:35.294Z,187.67
2018-11-25T15:20:35.492Z,165.77
2018-11-25T15:23:39.134Z,156.17
2018-11-25T15:26:43.859Z,161.90
2018-11-25T15:29:46.633Z,157.87
2018-11-25T15:32:50.818Z,167.97
2018-11-25T15:35:50.642Z,189.73
2018-11-25T15:38:50.492Z,199.53
2018-11-25T15:41:51.247Z,164.40
2018-11-25T15:44:55.684Z,177.00
2018-11-25T15:48:01.322Z,217.83
2018-11-25T15:51:06.420Z,240.17
2018-11-25T15:54:11.994Z,198.93
2018-11-25T15:57:13.095Z,182.50
2018-11-25T16:00:21.717Z,177.27
2018-11-25T16:03:26.235Z,167.33
2018-11-25T16:06:35.121Z,153.87
2018-11-25T16:09:39.553Z,167.03
2018-11-25T16:12:46.961Z,155.67
2018-11-25T16:15:49.378Z,152.62
2018-11-25T16:18:54.399Z,178.80
2018-11-25T16:21:58.508Z,160.20
2018-11-25T16:25:03.014Z,163.93
2018-11-25T16:28:08.104Z,152.80
2018-11-25T16:31:12.505Z,157.17
2018-11-25T16:34:16.946Z,153.97
2018-11-25T16:37:21.783Z,161.53
2018-11-25T16:40:24.896Z,160.20
2018-11-25T16:43:29.367Z,148.50
2018-11-25T16:46:35.420Z,151.40
2018-11-25T16:49:40.221Z,161.77
2018-11-25T16:52:45.305Z,164.30
2018-11-25T16:55:49.765Z,166.30
2018-11-25T16:58:53.850Z,152.97
2018-11-25T17:01:57.426Z,175.87
2018-11-25T17:05:03.315Z,156.60
2018-11-25T17:08:07.222Z,171.83
2018-11-25T17:11:11.949Z,167.43
2018-11-25T17:14:08.336Z,157.43
2018-11-25T17:20:15.597Z,160.20
2018-11-25T17:23:16.911Z,159.13
2018-11-25T17:26:22.367Z,156.17
2018-11-25T17:29:24.864Z,166.40
2018-11-25T17:32:29.831Z,165.27
2018-11-25T17:35:34.656Z,146.27
2018-11-25T17:38:44.894Z,157.87
2018-11-25T17:41:46.985Z,146.27
2018-11-25T17:44:51.802Z,156.63
2018-11-25T17:47:56.839Z,153.30
2018-11-25T17:51:02.559Z,151.40
2018-11-25T17:54:08.219Z,148.67
2018-11-25T17:57:16.682Z,143.93
2018-11-25T18:00:21.790Z,145.03
2018-11-25T18:03:27.366Z,136.40
2018-11-25T18:06:32.276Z,145.53
2018-11-25T18:09:32.839Z,139.47
2018-11-25T18:12:37.965Z,138.70
2018-11-25T18:15:42.513Z,144.13
2018-11-25T18:18:47.607Z,146.53
2018-11-25T18:21:51.638Z,137.23
2018-11-25T18:24:55.845Z,148.93
2018-11-25T18:28:00.528Z,143.97
2018-11-25T18:31:00.609Z,138.85
2018-11-25T18:34:04.984Z,156.97
2018-11-25T18:37:04.761Z,142.27
2018-11-25T18:40:08.461Z,157.77
2018-11-25T18:43:13.281Z,138.77
2018-11-25T18:46:17.556Z,136.93
2018-11-25T18:49:23.633Z,135.87
2018-11-25T18:52:27.618Z,128.93
2018-11-25T18:55:26.943Z,127.10
2018-11-25T18:58:26.922Z,138.43
2018-11-25T19:01:29.115Z,134.57
2018-11-25T19:04:34.054Z,114.43
2018-11-25T19:07:38.208Z,126.72
2018-11-25T19:10:42.718Z,140.93
2018-11-25T19:13:47.146Z,150.25
2018-11-25T19:16:52.464Z,135.10
2018-11-25T19:19:58.913Z,130.33
2018-11-25T19:23:03.829Z,124.87
2018-11-25T19:26:08.162Z,114.73
2018-11-25T19:29:12.298Z,125.70
2018-11-25T19:32:17.631Z,123.37
2018-11-25T19:35:18.544Z,126.97
2018-11-25T19:38:23.739Z,125.90
2018-11-25T19:41:28.454Z,124.10
2018-11-25T19:44:33.154Z,118.67
2018-11-25T19:47:38.167Z,116.80
2018-11-25T19:50:43.065Z,121.57
2018-11-25T19:53:47.183Z,111.97
2018-11-25T19:56:51.152Z,116.57
2018-11-25T19:59:55.324Z,114.13
2018-11-25T20:03:00.172Z,124.13
2018-11-25T20:06:01.428Z,119.97
2018-11-25T20:09:06.397Z,118.80
2018-11-25T20:12:06.658Z,108.45
2018-11-25T20:15:07.903Z,129.53
2018-11-25T20:18:12.675Z,112.03
2018-11-25T20:21:32.551Z,117.37
2018-11-25T20:24:37.332Z,111.87
2018-11-25T20:27:55.668Z,109.83
2018-11-25T20:31:00.644Z,119.20
2018-11-25T20:34:02.015Z,102.10
2018-11-25T20:37:02.536Z,122.07
2018-11-25T20:40:05.405Z,116.90
2018-11-25T20:43:10.288Z,109.23
2018-11-25T20:46:30.691Z,124.20
2018-11-25T20:49:35.818Z,109.83
2018-11-25T20:52:56.773Z,120.13
2018-11-25T20:55:58.542Z,119.80
2018-11-25T20:58:59.777Z,112.73
2018-11-25T21:02:04.634Z,116.53
2018-11-25T21:05:07.516Z,111.20
2018-11-25T21:08:12.936Z,150.10
2018-11-25T21:11:17.198Z,163.97
2018-11-25T21:14:21.804Z,156.90
2018-11-25T21:17:22.547Z,151.77
2018-11-25T21:20:26.957Z,181.53
2018-11-25T21:23:31.093Z,177.87
2018-11-25T21:26:35.423Z,177.90
2018-11-25T21:29:39.117Z,185.87
2018-11-25T21:32:44.433Z,155.47
2018-11-25T21:35:49.301Z,172.47
2018-11-25T21:38:50.392Z,179.97
2018-11-25T21:41:55.540Z,176.03
2018-11-25T21:44:59.190Z,183.60
2018-11-25T21:48:01.715Z,179.87
2018-11-25T21:51:02.541Z,161.40
2018-11-25T21:54:07.901Z,213.77
2018-11-25T21:57:12.297Z,191.40
2018-11-25T22:00:17.665Z,173.67
2018-11-25T22:03:18.122Z,184.53
2018-11-25T22:06:18.407Z,204.03
2018-11-25T22:09:22.897Z,199.73
2018-11-25T22:12:27.086Z,195.17
2018-11-25T22:15:28.724Z,200.67
2018-11-25T22:18:32.828Z,185.07
2018-11-25T22:21:37.623Z,190.33
2018-11-25T22:24:43.096Z,192.17
2018-11-25T22:27:51.138Z,210.20
2018-11-25T22:30:52.448Z,196.87
2018-11-25T22:33:53.095Z,199.87
2018-11-25T22:36:58.091Z,205.30
2018-11-25T22:39:58.650Z,232.23
2018-11-25T22:43:00.504Z,216.57
2018-11-25T22:46:05.016Z,210.80
2018-11-25T22:49:09.848Z,209.77
2018-11-25T22:52:15.184Z,220.73
2018-11-25T22:55:20.156Z,222.60
2018-11-25T22:58:24.702Z,213.63
2018-11-25T23:01:29.356Z,207.60
2018-11-25T23:04:35.100Z,207.97
2018-11-25T23:07:40.007Z,209.70
2018-11-25T23:10:44.259Z,215.17
2018-11-25T23:13:48.800Z,219.53
2018-11-25T23:16:53.262Z,231.83
2018-11-25T23:19:57.654Z,207.77
2018-11-25T23:23:03.061Z,202.97
2018-11-25T23:26:08.249Z,226.50
2018-11-25T23:29:13.538Z,226.60
2018-11-25T23:32:16.109Z,217.73
2018-11-25T23:35:24.217Z,229.80
2018-11-25T23:38:29.456Z,215.20
2018-11-25T23:41:34.685Z,212.13
2018-11-25T23:44:34.937Z,213.47
2018-11-25T23:47:39.698Z,217.43
2018-11-25T23:50:44.767Z,222.80
2018-11-25T23:53:49.366Z,235.60
2018-11-25T23:56:57.064Z,231.07
